Terminal Aerodrome Forecast
Issued by NWS Shreveport, LA

Home | Current Version | Previous Version | Text Only | Print | Product List | Glossary On
Versions: 1 2 3 4 5 6 7 8 9 10 11 12 13 14
000
FTUS44 KSHV 220556
TAFTYR
TAF
KTYR 220556Z 2206/2306 17011KT P6SM BKN060 OVC250
      TEMPO 2208/2210 20012KT SCT009 BKN015 OVC020
     FM221000 21011KT P6SM VCTS BKN015CB OVC030
      TEMPO 2210/2213 VRB15G30KT 3SM TSRA BR BKN015CB
     FM221300 33014KT P6SM BKN015
     FM221500 34016G22KT P6SM BKN035
     FM221800 34014G20KT P6SM OVC015
     FM222000 34017G23KT P6SM SKC=

USA.gov is the U.S. government's official web portal to all federal, state and local government web resources and services.